Time;durP1;ratioP1;P1;durP2;ratioP2;P2;SDS_P1;SDS_P2;PMS_P1;PMS_P2;Temp;Humidity;BMP_temperature;BMP_pressure;BME280_temperature;BME280_humidity;BME280_pressure;Samples;Min_cycle;Max_cycle;Signal;HPM_P1;HPM_P2
2023/04/03 00:01:44;;;;;;;16.70;10.30;;;9.90;95.60;;;;;;5038820;28;20028;-82
2023/04/03 00:04:10;;;;;;;13.65;9.60;;;9.90;95.60;;;;;;5043780;28;20039;-81
2023/04/03 00:06:36;;;;;;;16.15;9.93;;;10.00;95.60;;;;;;5026693;28;20037;-82
2023/04/03 00:09:02;;;;;;;17.98;10.50;;;10.00;95.50;;;;;;5041754;28;20029;-84
2023/04/03 00:11:28;;;;;;;14.50;10.45;;;10.00;95.60;;;;;;5018408;28;20018;-82
2023/04/03 00:13:56;;;;;;;13.75;10.10;;;10.00;95.80;;;;;;5038740;28;20030;-83
2023/04/03 00:16:22;;;;;;;13.38;9.63;;;10.00;95.80;;;;;;5051006;28;20113;-83
2023/04/03 00:18:48;;;;;;;16.75;10.32;;;10.00;95.60;;;;;;5053289;28;20021;-84
2023/04/03 00:21:15;;;;;;;14.20;9.07;;;10.00;95.60;;;;;;5036539;28;20013;-82
2023/04/03 00:23:41;;;;;;;12.85;9.90;;;10.00;95.60;;;;;;5035290;28;20029;-82
2023/04/03 00:26:07;;;;;;;12.75;9.68;;;10.00;95.70;;;;;;5027541;28;20025;-83
2023/04/03 00:28:33;;;;;;;11.40;9.27;;;10.00;95.50;;;;;;5048040;28;20107;-83
2023/04/03 00:30:59;;;;;;;14.20;8.77;;;10.00;95.00;;;;;;5047898;28;20034;-82
2023/04/03 00:33:25;;;;;;;10.40;8.93;;;10.00;94.80;;;;;;5036335;28;20026;-83
2023/04/03 00:35:51;;;;;;;12.15;9.40;;;9.90;94.80;;;;;;5016243;28;20483;-82
2023/04/03 00:38:18;;;;;;;11.00;8.50;;;9.90;94.70;;;;;;5027027;28;20071;-83
2023/04/03 00:40:46;;;;;;;15.02;10.23;;;9.90;94.70;;;;;;5036512;28;20355;-83
2023/04/03 00:43:21;;;;;;;14.77;9.02;;;9.80;95.00;;;;;;5036816;28;20120;-83
2023/04/03 00:45:51;;;;;;;14.52;10.20;;;9.80;94.90;;;;;;5035862;28;20156;-82
2023/04/03 00:48:40;;;;;;;15.00;10.02;;;9.70;94.90;;;;;;5034456;28;20021;-83
2023/04/03 00:51:10;;;;;;;11.38;8.45;;;9.70;94.70;;;;;;5016569;28;20023;-83
2023/04/03 00:53:44;;;;;;;14.40;9.82;;;9.60;94.80;;;;;;5016576;28;20508;-82
2023/04/03 00:56:15;;;;;;;15.43;9.00;;;9.60;94.80;;;;;;5017642;28;20088;-83
2023/04/03 00:58:47;;;;;;;15.60;8.90;;;9.50;94.70;;;;;;5017815;28;20047;-81
2023/04/03 01:01:17;;;;;;;12.75;8.43;;;9.50;94.60;;;;;;5033903;28;20375;-82
2023/04/03 01:03:43;;;;;;;10.73;8.38;;;9.40;94.60;;;;;;5034048;28;20018;-83
2023/04/03 01:06:09;;;;;;;12.60;9.18;;;9.40;94.50;;;;;;5034115;28;20091;-83
2023/04/03 01:08:35;;;;;;;11.38;9.00;;;9.30;94.50;;;;;;5017542;28;20132;-83
2023/04/03 01:11:01;;;;;;;15.43;9.25;;;9.30;94.60;;;;;;5034256;28;20616;-83
2023/04/03 01:13:30;;;;;;;12.93;9.30;;;9.30;94.70;;;;;;5033078;28;20022;-82
2023/04/03 01:15:56;;;;;;;15.10;9.13;;;9.20;94.70;;;;;;5034204;28;20026;-82
2023/04/03 01:18:25;;;;;;;13.07;8.90;;;9.30;94.60;;;;;;5034696;28;20112;-83
2023/04/03 01:21:21;;;;;;;14.95;9.48;;;9.30;94.60;;;;;;5034228;28;20029;-83
2023/04/03 01:24:05;;;;;;;14.02;8.90;;;9.20;94.50;;;;;;5033965;28;20053;-83
2023/04/03 01:26:31;;;;;;;15.63;8.60;;;9.20;94.50;;;;;;5033974;28;20026;-84
2023/04/03 01:28:59;;;;;;;12.30;9.30;;;9.20;94.50;;;;;;5017344;28;20446;-82
2023/04/03 01:31:27;;;;;;;16.00;11.55;;;9.20;94.50;;;;;;5027582;28;20115;-83
2023/04/03 01:33:53;;;;;;;;;;;9.20;94.80;;;;;;5033935;28;20487;-82
2023/04/03 01:36:26;;;;;;;12.32;9.10;;;9.30;94.70;;;;;;5012537;28;19912;-82
2023/04/03 01:38:53;;;;;;;14.43;9.23;;;9.20;94.60;;;;;;5020715;28;20017;-83
2023/04/03 01:41:20;;;;;;;11.80;9.07;;;9.10;94.50;;;;;;5039006;28;20029;-83
2023/04/03 01:43:47;;;;;;;17.23;10.05;;;9.10;94.50;;;;;;5021302;28;20040;-81
2023/04/03 01:46:14;;;;;;;10.57;9.13;;;9.10;94.60;;;;;;5031226;28;20025;-82
2023/04/03 01:48:40;;;;;;;16.20;9.50;;;9.00;94.60;;;;;;5011247;28;20049;-82
2023/04/03 01:51:06;;;;;;;15.68;10.00;;;9.00;94.60;;;;;;5042603;28;20017;-81
2023/04/03 01:53:32;;;;;;;16.45;10.93;;;9.00;94.60;;;;;;5027944;28;20048;-84
2023/04/03 01:55:58;;;;;;;12.77;10.57;;;9.00;94.70;;;;;;5019848;28;20075;-82
2023/04/03 01:58:24;;;;;;;16.48;10.98;;;8.90;94.70;;;;;;5035361;28;20471;-83
2023/04/03 02:00:51;;;;;;;14.50;10.50;;;8.90;94.70;;;;;;5033812;28;20063;-84
2023/04/03 02:03:18;;;;;;;14.48;10.93;;;8.80;94.80;;;;;;5033475;28;20029;-83
2023/04/03 02:05:44;;;;;;;14.40;10.43;;;8.80;94.80;;;;;;5034841;28;20041;-81
2023/04/03 02:08:11;;;;;;;14.48;11.10;;;8.80;94.90;;;;;;5037066;28;20374;-84
2023/04/03 02:10:37;;;;;;;15.10;10.85;;;8.70;95.10;;;;;;5033338;28;20064;-81
2023/04/03 02:13:03;;;;;;;15.05;10.82;;;8.70;95.40;;;;;;5015253;28;20044;-84
2023/04/03 02:15:29;;;;;;;13.88;10.70;;;8.70;95.60;;;;;;5033327;28;20096;-83
2023/04/03 02:17:55;;;;;;;15.38;10.48;;;8.70;95.70;;;;;;5018209;28;20060;-83
2023/04/03 02:20:21;;;;;;;15.35;11.80;;;8.60;95.70;;;;;;5037817;28;20021;-84
2023/04/03 02:22:48;;;;;;;16.55;11.82;;;8.60;95.70;;;;;;5045854;28;20112;-81
2023/04/03 02:25:14;;;;;;;19.90;12.68;;;8.70;95.70;;;;;;5037103;28;20018;-82
2023/04/03 02:27:40;;;;;;;15.77;12.27;;;8.70;95.60;;;;;;5033674;28;20049;-82
2023/04/03 02:30:06;;;;;;;22.15;14.13;;;8.70;95.40;;;;;;5033294;28;20348;-83
2023/04/03 02:32:32;;;;;;;19.17;13.95;;;8.80;95.30;;;;;;5016104;28;20033;-80
2023/04/03 02:34:58;;;;;;;17.58;13.02;;;8.80;95.30;;;;;;5017244;28;20026;-81
2023/04/03 02:37:24;;;;;;;15.90;12.85;;;8.80;95.20;;;;;;5038593;28;20028;-82
2023/04/03 02:39:50;;;;;;;25.35;13.88;;;8.80;95.30;;;;;;5044619;28;20033;-81
2023/04/03 02:42:16;;;;;;;21.23;13.98;;;8.70;95.50;;;;;;5043807;28;20040;-84
2023/04/03 02:44:42;;;;;;;19.35;13.75;;;8.70;95.70;;;;;;5040661;28;20034;-81
2023/04/03 02:47:08;;;;;;;25.70;14.27;;;8.70;95.80;;;;;;5037049;28;20503;-82
2023/04/03 02:49:34;;;;;;;22.20;14.00;;;8.70;96.00;;;;;;5037815;28;20567;-83
2023/04/03 02:52:00;;;;;;;19.83;14.85;;;8.60;96.00;;;;;;5039720;28;20025;-83
2023/04/03 02:54:28;;;;;;;17.00;13.32;;;8.60;95.90;;;;;;5033765;28;20057;-84
2023/04/03 02:56:54;;;;;;;19.42;12.88;;;8.60;95.90;;;;;;5019842;28;20025;-83
2023/04/03 02:59:20;;;;;;;21.33;14.65;;;8.70;95.80;;;;;;5015954;28;20558;-85
2023/04/03 03:01:46;;;;;;;22.85;14.15;;;8.70;95.70;;;;;;5032915;28;20121;-84
2023/04/03 03:04:12;;;;;;;21.10;15.30;;;8.70;95.50;;;;;;5032632;28;20502;-82
2023/04/03 03:06:38;;;;;;;24.30;14.50;;;8.70;95.50;;;;;;5017856;28;20053;-84
2023/04/03 03:09:05;;;;;;;21.65;17.08;;;8.70;95.50;;;;;;5032102;28;20037;-83
2023/04/03 03:11:31;;;;;;;21.67;14.85;;;8.70;95.90;;;;;;5033732;28;20401;-82
2023/04/03 03:13:57;;;;;;;22.45;15.90;;;8.60;95.50;;;;;;5032815;28;20033;-84
2023/04/03 03:16:23;;;;;;;19.23;14.10;;;8.60;95.50;;;;;;5035708;28;20390;-84
2023/04/03 03:18:49;;;;;;;21.60;15.73;;;8.50;95.50;;;;;;5035976;28;20032;-84
2023/04/03 03:21:17;;;;;;;24.13;15.90;;;8.50;95.50;;;;;;5015701;28;20387;-82
2023/04/03 03:23:43;;;;;;;22.67;14.82;;;8.50;95.60;;;;;;5034281;28;20033;-84
2023/04/03 03:26:10;;;;;;;30.58;16.90;;;8.40;95.70;;;;;;5038062;28;20017;-83
2023/04/03 03:28:37;;;;;;;28.00;16.73;;;8.40;95.90;;;;;;5041693;28;20051;-84
2023/04/03 03:31:04;;;;;;;23.48;15.45;;;8.30;96.00;;;;;;5038177;28;20037;-83
2023/04/03 03:33:30;;;;;;;23.52;15.77;;;8.40;96.00;;;;;;5038684;28;20025;-84
2023/04/03 03:35:56;;;;;;;24.10;16.77;;;8.40;96.10;;;;;;5037975;28;20048;-84
2023/04/03 03:38:23;;;;;;;24.98;15.63;;;8.40;96.10;;;;;;5037957;28;20021;-82
2023/04/03 03:40:50;;;;;;;23.50;16.30;;;8.40;96.10;;;;;;5038634;28;20155;-83
2023/04/03 03:43:17;;;;;;;26.40;15.63;;;8.40;96.10;;;;;;5016329;28;20026;-83
2023/04/03 03:45:43;;;;;;;23.50;16.45;;;8.40;96.00;;;;;;5028321;28;20094;-83
2023/04/03 03:48:09;;;;;;;29.50;16.80;;;8.40;96.00;;;;;;5037834;28;20024;-83
2023/04/03 03:50:35;;;;;;;25.00;16.25;;;8.40;96.20;;;;;;5037741;28;20440;-83
2023/04/03 03:53:01;;;;;;;23.10;14.52;;;8.40;95.90;;;;;;5035967;28;20124;-84
2023/04/03 03:55:27;;;;;;;24.17;15.45;;;8.40;95.60;;;;;;5018423;28;20033;-83
2023/04/03 03:57:53;;;;;;;25.52;14.88;;;8.40;95.50;;;;;;5035740;28;20021;-84
2023/04/03 04:00:19;;;;;;;25.90;16.63;;;8.40;95.60;;;;;;5035599;28;20030;-85
2023/04/03 04:02:45;;;;;;;21.33;15.88;;;8.40;95.70;;;;;;5023799;28;20129;-84
2023/04/03 04:05:11;;;;;;;31.83;18.13;;;8.40;95.80;;;;;;5036079;28;20048;-84
2023/04/03 04:07:37;;;;;;;23.95;15.82;;;8.40;95.80;;;;;;5035377;28;20029;-84
2023/04/03 04:10:03;;;;;;;21.13;16.13;;;8.40;95.80;;;;;;5036751;28;20022;-82
2023/04/03 04:12:29;;;;;;;27.00;16.73;;;8.40;95.60;;;;;;5037804;28;20252;-85
2023/04/03 04:14:55;;;;;;;20.80;15.18;;;8.40;95.60;;;;;;5054896;28;20028;-83
2023/04/03 04:17:21;;;;;;;23.63;16.50;;;8.40;95.60;;;;;;5042022;28;20447;-82
2023/04/03 04:19:47;;;;;;;24.60;15.55;;;8.40;95.60;;;;;;5037422;28;20076;-81
2023/04/03 04:22:13;;;;;;;25.02;16.27;;;8.40;95.60;;;;;;5038421;28;20018;-82
2023/04/03 04:24:39;;;;;;;19.15;14.25;;;8.40;95.50;;;;;;5037959;28;20104;-82
2023/04/03 04:27:05;;;;;;;24.58;14.88;;;8.40;95.30;;;;;;5038397;28;20028;-81
2023/04/03 04:29:35;;;;;;;25.42;15.20;;;8.40;95.20;;;;;;5036911;28;20048;-82
2023/04/03 04:32:02;;;;;;;24.83;15.23;;;8.50;95.20;;;;;;5021635;28;20028;-83
2023/04/03 04:34:28;;;;;;;26.10;15.43;;;8.50;95.20;;;;;;5040628;28;20022;-83
2023/04/03 04:36:54;;;;;;;24.92;17.17;;;8.60;95.10;;;;;;5043650;28;20073;-82
2023/04/03 04:39:20;;;;;;;24.48;16.83;;;8.70;95.10;;;;;;5048797;28;20068;-84
2023/04/03 04:41:46;;;;;;;28.17;17.75;;;8.80;94.90;;;;;;5047420;28;20081;-83
2023/04/03 04:44:12;;;;;;;35.60;17.25;;;8.80;94.70;;;;;;5048113;28;20037;-83
2023/04/03 04:46:38;;;;;;;29.83;16.50;;;8.90;94.60;;;;;;5045585;28;20053;-83
2023/04/03 04:49:03;;;;;;;28.52;17.52;;;9.10;94.40;;;;;;5024347;28;20037;-84
2023/04/03 04:51:30;;;;;;;25.67;17.05;;;9.10;94.20;;;;;;5023586;28;20053;-82
2023/04/03 04:53:56;;;;;;;29.00;17.15;;;9.30;94.00;;;;;;5036371;28;20026;-83
2023/04/03 04:56:21;;;;;;;24.77;17.10;;;9.40;93.60;;;;;;5017694;28;20029;-81
2023/04/03 04:58:47;;;;;;;29.10;16.90;;;9.60;93.40;;;;;;5035709;28;20027;-82
2023/04/03 05:01:13;;;;;;;24.58;17.63;;;9.80;93.20;;;;;;5038792;28;20013;-83
2023/04/03 05:03:40;;;;;;;22.98;16.75;;;9.90;93.20;;;;;;5037585;28;20032;-83
2023/04/03 05:06:06;;;;;;;32.40;16.40;;;10.20;92.70;;;;;;5028277;28;20041;-84
2023/04/03 05:08:32;;;;;;;28.33;15.68;;;10.30;92.40;;;;;;5027928;28;20037;-82
2023/04/03 05:10:58;;;;;;;19.55;16.27;;;10.40;92.10;;;;;;5010676;28;20201;-84
2023/04/03 05:13:24;;;;;;;23.38;15.75;;;10.40;91.90;;;;;;5010051;28;20050;-83
2023/04/03 05:15:50;;;;;;;20.70;15.50;;;10.50;91.80;;;;;;5022199;28;20027;-84
2023/04/03 05:18:16;;;;;;;23.67;14.98;;;10.50;91.60;;;;;;5019239;28;20479;-84
2023/04/03 05:20:43;;;;;;;26.98;17.08;;;10.50;91.50;;;;;;5017557;28;20021;-84
2023/04/03 05:23:10;;;;;;;24.52;15.80;;;10.50;91.40;;;;;;4998474;28;20034;-85
2023/04/03 05:25:38;;;;;;;27.98;15.63;;;10.60;91.70;;;;;;5022807;28;20033;-86
2023/04/03 05:28:04;;;;;;;26.17;15.38;;;10.60;91.20;;;;;;5023489;28;20089;-84
2023/04/03 05:30:30;;;;;;;24.27;15.80;;;10.50;91.00;;;;;;5027083;28;20076;-84
2023/04/03 05:32:56;;;;;;;21.75;14.18;;;10.50;91.10;;;;;;5025023;28;20475;-85
2023/04/03 05:35:22;;;;;;;27.10;15.57;;;10.50;90.90;;;;;;5024770;28;20025;-84
2023/04/03 05:37:48;;;;;;;22.90;17.83;;;10.40;90.90;;;;;;5025553;28;20022;-84
2023/04/03 05:40:14;;;;;;;28.48;16.80;;;10.30;91.10;;;;;;5021822;28;20372;-84
2023/04/03 05:42:40;;;;;;;32.05;17.02;;;10.20;91.20;;;;;;5024220;28;20037;-83
2023/04/03 05:45:06;;;;;;;29.42;17.80;;;10.20;91.10;;;;;;5018171;28;20166;-84
2023/04/03 05:47:32;;;;;;;29.60;16.60;;;10.10;91.10;;;;;;5005336;28;20049;-82
2023/04/03 05:49:58;;;;;;;30.10;16.85;;;10.10;91.20;;;;;;5030441;28;20033;-84
2023/04/03 05:52:28;;;;;;;23.95;15.50;;;10.00;91.30;;;;;;5018755;28;20018;-85
2023/04/03 05:54:55;;;;;;;29.50;18.00;;;10.10;91.40;;;;;;5018804;28;20056;-82
2023/04/03 05:57:22;;;;;;;30.50;18.38;;;10.20;91.60;;;;;;5015021;28;20141;-82
2023/04/03 05:59:48;;;;;;;33.13;17.83;;;10.40;91.60;;;;;;5010591;28;20025;-83
2023/04/03 06:02:17;;;;;;;22.60;16.83;;;10.50;91.40;;;;;;5032135;28;20033;-81
2023/04/03 06:04:43;;;;;;;24.25;15.15;;;10.70;91.10;;;;;;5009380;28;20498;-85
2023/04/03 06:07:17;;;;;;;22.52;15.45;;;10.70;90.50;;;;;;5058876;28;20063;-85
2023/04/03 06:09:43;;;;;;;22.33;14.10;;;10.70;90.50;;;;;;5027771;28;20041;-80
2023/04/03 06:12:10;;;;;;;26.08;16.58;;;10.70;90.50;;;;;;5054779;28;20432;-81
2023/04/03 06:14:36;;;;;;;26.92;14.73;;;10.60;90.50;;;;;;5048043;28;20029;-83
2023/04/03 06:17:02;;;;;;;25.15;17.65;;;10.50;90.50;;;;;;5057353;28;20192;-83
2023/04/03 06:19:28;;;;;;;23.70;15.43;;;10.50;90.70;;;;;;5052669;28;20053;-83
2023/04/03 06:21:54;;;;;;;26.13;15.02;;;10.50;90.80;;;;;;5038692;28;20017;-84
2023/04/03 06:24:23;;;;;;;31.60;15.13;;;10.50;90.60;;;;;;5038706;28;20039;-82
2023/04/03 06:26:51;;;;;;;33.60;16.95;;;10.50;90.70;;;;;;5031127;28;20075;-81
2023/04/03 06:29:17;;;;;;;25.95;15.02;;;10.60;90.90;;;;;;5012564;28;20088;-82
2023/04/03 06:31:43;;;;;;;38.45;17.85;;;10.60;90.90;;;;;;5058965;28;20009;-82
2023/04/03 06:34:11;;;;;;;32.40;17.10;;;10.70;90.60;;;;;;5056016;28;20036;-81
2023/04/03 06:36:38;;;;;;;27.05;16.55;;;10.80;90.50;;;;;;5033072;28;20029;-84
2023/04/03 06:39:05;;;;;;;25.60;16.35;;;11.00;90.50;;;;;;5033299;28;20021;-83
2023/04/03 06:41:31;;;;;;;28.65;15.23;;;11.10;89.80;;;;;;5051130;28;20114;-83
2023/04/03 06:43:58;;;;;;;26.73;15.52;;;11.00;89.50;;;;;;5051361;28;20092;-83
2023/04/03 06:46:26;;;;;;;25.33;14.75;;;11.00;89.70;;;;;;5035067;28;20033;-83
2023/04/03 06:48:52;;;;;;;26.52;16.50;;;11.00;89.80;;;;;;5035122;28;20042;-83
2023/04/03 06:51:23;;;;;;;20.73;15.13;;;11.10;89.50;;;;;;5035724;28;20021;-83
2023/04/03 06:53:51;;;;;;;26.85;15.90;;;11.10;89.10;;;;;;5034808;28;20048;-81
2023/04/03 06:56:18;;;;;;;32.00;17.88;;;11.30;89.10;;;;;;5036510;28;20100;-82
2023/04/03 06:58:44;;;;;;;34.30;16.60;;;11.50;89.00;;;;;;5038753;28;20117;-83
2023/04/03 07:01:12;;;;;;;24.33;16.35;;;11.80;88.50;;;;;;5037595;28;20048;-83
2023/04/03 07:03:38;;;;;;;26.70;18.00;;;12.10;87.10;;;;;;5036564;28;20025;-84
2023/04/03 07:06:05;;;;;;;28.55;17.73;;;12.50;86.30;;;;;;5038377;28;20053;-83
2023/04/03 07:08:31;;;;;;;28.27;17.08;;;12.80;85.30;;;;;;5040572;28;20100;-84
2023/04/03 07:10:57;;;;;;;35.38;17.33;;;13.20;84.40;;;;;;5021879;28;20034;-83
2023/04/03 07:13:24;;;;;;;26.38;17.02;;;13.80;83.30;;;;;;5039846;28;20018;-81
2023/04/03 07:15:50;;;;;;;26.48;18.08;;;14.30;80.50;;;;;;5040905;28;20078;-82
2023/04/03 07:18:19;;;;;;;36.35;17.55;;;14.60;78.80;;;;;;5027052;28;20048;-82
2023/04/03 07:20:45;;;;;;;30.15;16.70;;;15.00;77.50;;;;;;5043259;28;20148;-81
2023/04/03 07:23:11;;;;;;;28.23;17.63;;;15.50;76.60;;;;;;5039706;28;20021;-83
2023/04/03 07:25:44;;;;;;;34.45;17.48;;;16.00;75.40;;;;;;5041697;28;20029;-83
2023/04/03 07:28:10;;;;;;;30.58;16.48;;;16.20;72.70;;;;;;5036824;28;20025;-84
2023/04/03 07:30:46;;;;;;;27.67;17.27;;;16.30;70.90;;;;;;5042738;28;20037;-83
2023/04/03 07:33:14;;;;;;;26.40;16.05;;;16.30;70.00;;;;;;5041413;28;20022;-84
2023/04/03 07:35:41;;;;;;;41.75;17.58;;;16.40;69.60;;;;;;5039490;28;20120;-84
2023/04/03 07:38:07;;;;;;;25.30;17.20;;;;;;;;;;5040060;28;20029;-83
2023/04/03 07:40:34;;;;;;;20.67;15.32;;;17.30;67.10;;;;;;5021961;28;20061;-84
2023/04/03 07:43:00;;;;;;;25.48;15.85;;;17.60;64.90;;;;;;5037483;28;20029;-82
2023/04/03 07:45:27;;;;;;;22.92;14.73;;;17.40;64.30;;;;;;5038149;28;20033;-84
2023/04/03 07:47:53;;;;;;;21.23;14.88;;;17.20;63.40;;;;;;5039702;28;20072;-83
2023/04/03 07:50:19;;;;;;;24.95;15.15;;;16.80;63.40;;;;;;5039651;28;20033;-84
2023/04/03 07:52:46;;;;;;;23.73;16.02;;;16.80;64.10;;;;;;5020800;28;20033;-85
2023/04/03 07:55:12;;;;;;;;;;;17.10;63.70;;;;;;5021435;28;20498;-82
2023/04/03 07:57:38;;;;;;;24.95;17.75;;;17.00;65.20;;;;;;5039419;28;19917;-84
2023/04/03 08:00:07;;;;;;;33.80;17.77;;;17.00;63.80;;;;;;5044085;28;20017;-84
2023/04/03 08:02:33;;;;;;;31.70;18.15;;;17.20;63.80;;;;;;5038024;28;20025;-83
2023/04/03 08:04:59;;;;;;;35.50;18.85;;;17.40;63.50;;;;;;5038893;28;20024;-84
2023/04/03 08:07:25;;;;;;;42.42;20.52;;;17.60;63.10;;;;;;5038522;28;20039;-82
2023/04/03 08:09:51;;;;;;;27.52;18.27;;;17.80;62.40;;;;;;5042704;28;20059;-84
2023/04/03 08:12:17;;;;;;;33.33;18.52;;;17.90;61.40;;;;;;5045184;28;20034;-83
2023/04/03 08:14:43;;;;;;;37.60;20.63;;;17.80;61.80;;;;;;5045048;28;20041;-84
2023/04/03 08:17:11;;;;;;;34.92;21.02;;;17.50;62.00;;;;;;5041560;28;20070;-83
2023/04/03 08:19:40;;;;;;;47.58;20.13;;;17.10;62.80;;;;;;5039329;28;20033;-83
2023/04/03 08:22:07;;;;;;;39.25;20.35;;;16.90;63.70;;;;;;5042997;28;20459;-84
2023/04/03 08:24:33;;;;;;;40.10;20.60;;;16.70;63.40;;;;;;5045752;28;20025;-83
2023/04/03 08:27:00;;;;;;;36.20;21.05;;;16.60;63.50;;;;;;5027071;28;20056;-83
2023/04/03 08:29:26;;;;;;;36.05;22.02;;;16.40;64.50;;;;;;5028433;28;20566;-85
2023/04/03 08:31:52;;;;;;;46.95;24.23;;;16.10;65.50;;;;;;5053359;28;20078;-84
2023/04/03 08:34:19;;;;;;;39.53;20.17;;;15.80;65.70;;;;;;5024301;28;20060;-81
2023/04/03 08:36:45;;;;;;;31.48;19.88;;;15.60;66.20;;;;;;5024094;28;20089;-86
2023/04/03 08:39:12;;;;;;;44.92;22.20;;;15.30;66.90;;;;;;5038209;28;20040;-82
2023/04/03 08:41:42;;;;;;;39.50;22.23;;;15.20;68.20;;;;;;5042982;28;20033;-83
2023/04/03 08:44:23;;;;;;;39.38;21.58;;;15.20;68.40;;;;;;5022330;28;20032;-85
2023/04/03 08:46:56;;;;;;;44.92;19.95;;;15.40;68.60;;;;;;5041260;28;20116;-84
2023/04/03 08:49:28;;;;;;;35.75;21.65;;;15.50;68.40;;;;;;5023873;28;20192;-83
2023/04/03 08:51:55;;;;;;;36.75;21.67;;;15.60;67.60;;;;;;5024601;28;20049;-83
2023/04/03 08:54:35;;;;;;;36.95;21.05;;;15.60;68.00;;;;;;5024612;28;20036;-83
2023/04/03 08:57:05;;;;;;;35.70;21.20;;;15.60;67.20;;;;;;5042407;28;20028;-85
2023/04/03 08:59:34;;;;;;;45.22;23.58;;;15.40;67.60;;;;;;5023712;28;20025;-84
2023/04/03 09:02:06;;;;;;;38.50;21.33;;;15.20;68.20;;;;;;5021991;28;20081;-84
2023/04/03 09:04:33;;;;;;;43.95;21.95;;;15.20;69.10;;;;;;5046843;28;20030;-82
2023/04/03 09:07:08;;;;;;;43.45;22.95;;;15.40;69.10;;;;;;5039215;28;20064;-83
2023/04/03 09:09:41;;;;;;;32.13;20.33;;;15.70;68.60;;;;;;5022072;28;20041;-84
2023/04/03 09:12:14;;;;;;;32.97;20.25;;;16.00;67.60;;;;;;5041139;28;20122;-81
2023/04/03 09:14:56;;;;;;;31.75;18.50;;;16.10;67.00;;;;;;5042445;28;20036;-83
2023/04/03 09:17:45;;;;;;;34.20;19.90;;;16.20;66.40;;;;;;5029547;28;20018;-81
2023/04/03 09:21:04;;;;;;;31.25;18.95;;;16.80;66.60;;;;;;5009675;28;20033;-82
2023/04/03 09:23:38;;;;;;;36.20;21.17;;;17.30;65.30;;;;;;4943530;29;20084;-84
2023/04/03 09:26:14;;;;;;;36.08;21.05;;;17.20;63.40;;;;;;4945376;29;20036;-82
2023/04/03 09:28:42;;;;;;;30.58;17.83;;;17.10;63.60;;;;;;4944241;29;20035;-85
2023/04/03 09:31:41;;;;;;;33.42;21.27;;;17.00;63.10;;;;;;4927998;29;20054;-83
2023/04/03 09:34:30;;;;;;;29.30;18.95;;;16.90;64.40;;;;;;4949828;29;20091;-85
2023/04/03 09:36:58;;;;;;;28.40;18.75;;;16.80;63.90;;;;;;4949574;28;20058;-83
2023/04/03 09:39:28;;;;;;;27.02;18.08;;;17.20;63.10;;;;;;4946145;29;20032;-83
2023/04/03 09:42:18;;;;;;;44.45;20.83;;;17.40;62.20;;;;;;4950097;29;20051;-84
2023/04/03 09:44:54;;;;;;;33.75;20.48;;;17.40;62.30;;;;;;4957453;29;20036;-83
2023/04/03 09:47:41;;;;;;;29.45;18.63;;;17.40;62.30;;;;;;4941682;29;20058;-83
2023/04/03 09:50:13;;;;;;;37.22;18.98;;;17.40;61.80;;;;;;4949549;29;20078;-81
2023/04/03 09:52:41;;;;;;;31.27;18.63;;;17.60;61.80;;;;;;4929120;29;20103;-82
2023/04/03 09:55:13;;;;;;;30.90;17.60;;;17.70;60.90;;;;;;4927196;29;20027;-83
2023/04/03 09:57:39;;;;;;;30.73;18.23;;;17.50;60.20;;;;;;5014358;28;20029;-85
2023/04/03 10:00:19;;;;;;;24.73;16.90;;;17.10;60.80;;;;;;5040789;28;20075;-84
2023/04/03 10:02:49;;;;;;;38.40;18.88;;;16.60;61.20;;;;;;5039281;28;20750;-85
2023/04/03 10:05:36;;;;;;;30.95;18.67;;;16.30;62.10;;;;;;5040467;28;20045;-84
2023/04/03 10:08:10;;;;;;;25.77;16.95;;;16.30;63.10;;;;;;5018612;28;20113;-84
2023/04/03 10:10:36;;;;;;;42.85;20.25;;;16.50;62.50;;;;;;5017699;28;20087;-84
2023/04/03 10:13:19;;;;;;;31.27;17.83;;;16.80;62.50;;;;;;5023139;28;20018;-84
2023/04/03 10:16:08;;;;;;;27.30;18.02;;;16.80;61.90;;;;;;5022520;28;20494;-84
2023/04/03 10:18:48;;;;;;;30.35;18.13;;;16.90;61.80;;;;;;5026123;28;20391;-83
2023/04/03 10:21:36;;;;;;;31.38;17.33;;;16.80;62.40;;;;;;5008323;28;20036;-83
2023/04/03 10:24:20;;;;;;;;;;;16.70;62.20;;;;;;5017894;28;20018;-84
2023/04/03 10:27:08;;;;;;;40.15;20.08;;;16.60;62.80;;;;;;5015347;28;19912;-82
2023/04/03 10:29:49;;;;;;;29.00;17.08;;;16.50;62.90;;;;;;5018276;28;20034;-84
2023/04/03 10:32:40;;;;;;;36.83;20.63;;;16.50;63.00;;;;;;5012944;28;20025;-82
2023/04/03 10:35:20;;;;;;;36.10;17.15;;;16.40;62.10;;;;;;5018171;28;20030;-84
2023/04/03 10:38:01;;;;;;;41.55;25.58;;;16.50;62.40;;;;;;5017204;28;20029;-84
2023/04/03 10:40:43;;;;;;;26.52;15.32;;;16.40;62.10;;;;;;5004466;28;20030;-83
2023/04/03 10:43:26;;;;;;;29.02;16.50;;;16.20;62.00;;;;;;5035716;28;20100;-83
2023/04/03 10:46:24;;;;;;;28.50;15.20;;;16.10;62.50;;;;;;5040130;28;20036;-83
2023/04/03 10:49:31;;;;;;;30.02;16.13;;;16.10;62.70;;;;;;5037594;28;20029;-83
2023/04/03 10:52:19;;;;;;;25.63;14.68;;;16.20;62.50;;;;;;4986865;28;20048;-86
2023/04/03 10:55:10;;;;;;;22.33;13.55;;;16.20;61.30;;;;;;5014849;28;20374;-84
2023/04/03 10:57:37;;;;;;;22.35;14.73;;;16.10;61.50;;;;;;5033644;28;20088;-83
2023/04/03 11:00:18;;;;;;;24.02;15.05;;;16.20;61.60;;;;;;5025720;28;20014;-85
2023/04/03 11:03:06;;;;;;;30.38;14.48;;;16.20;61.10;;;;;;5020702;28;20030;-84
2023/04/03 11:05:47;;;;;;;27.45;14.23;;;16.40;61.20;;;;;;5033173;28;20042;-85
2023/04/03 11:08:35;;;;;;;27.50;16.38;;;16.60;61.10;;;;;;5037485;28;20474;-85
2023/04/03 11:11:25;;;;;;;29.90;16.23;;;16.80;61.50;;;;;;5019730;28;20037;-85
2023/04/03 11:14:02;;;;;;;27.20;16.13;;;16.90;61.60;;;;;;5038311;28;20041;-85
2023/04/03 11:16:30;;;;;;;;;;;16.90;61.20;;;;;;5038436;28;20071;-85
2023/04/03 11:19:12;;;;;;;;;;;16.90;61.80;;;;;;5018979;28;20349;-81
2023/04/03 11:21:44;;;;;;;31.67;16.05;;;17.00;62.10;;;;;;5038955;28;20354;-83
2023/04/03 11:24:26;;;;;;;26.77;16.40;;;16.90;61.40;;;;;;5035369;28;20037;-85
2023/04/03 11:26:55;;;;;;;27.50;15.77;;;16.80;60.90;;;;;;5036763;28;20710;-83
2023/04/03 11:29:26;;;;;;;21.60;13.95;;;16.50;62.00;;;;;;5035214;28;20073;-84
2023/04/03 11:32:14;;;;;;;26.08;14.35;;;16.50;62.10;;;;;;5038101;28;20021;-83
2023/04/03 11:34:43;;;;;;;29.98;15.38;;;16.50;62.00;;;;;;5039675;28;20049;-84
2023/04/03 11:37:44;;;;;;;24.65;15.65;;;16.50;62.80;;;;;;5024720;28;20025;-83
2023/04/03 11:40:17;;;;;;;24.02;14.95;;;16.70;62.80;;;;;;5020910;28;20105;-84
2023/04/03 11:42:52;;;;;;;41.88;17.35;;;16.80;62.00;;;;;;5024937;28;20113;-84
2023/04/03 11:45:26;;;;;;;34.40;16.15;;;16.90;62.00;;;;;;5049062;28;20076;-83
2023/04/03 11:47:58;;;;;;;22.38;14.68;;;16.90;62.10;;;;;;5023421;28;20125;-84
2023/04/03 11:50:42;;;;;;;30.25;14.75;;;16.90;61.10;;;;;;5037607;28;20065;-84
2023/04/03 11:53:08;;;;;;;26.70;14.85;;;16.80;61.80;;;;;;5027447;28;20017;-85
2023/04/03 11:55:35;;;;;;;19.17;12.70;;;16.70;62.10;;;;;;5041799;28;20076;-82
2023/04/03 11:58:01;;;;;;;26.77;13.48;;;16.70;61.80;;;;;;5042045;28;20021;-83
2023/04/03 12:00:58;;;;;;;23.23;13.40;;;16.50;61.60;;;;;;5034719;28;20069;-84
2023/04/03 12:03:27;;;;;;;30.63;14.15;;;16.40;62.90;;;;;;5035379;28;20046;-84
2023/04/03 12:06:13;;;;;;;19.08;11.90;;;16.20;62.50;;;;;;5041148;28;20042;-84
2023/04/03 12:08:42;;;;;;;16.70;12.53;;;16.10;62.30;;;;;;5037102;28;20032;-84
2023/04/03 12:14:04;;;;;;;25.13;14.25;;;15.80;63.20;;;;;;5036391;28;20045;-84
2023/04/03 12:16:44;;;;;;;18.77;11.93;;;15.60;63.50;;;;;;5038427;28;20501;-84
2023/04/03 12:19:36;;;;;;;17.90;10.02;;;15.50;63.00;;;;;;5023733;28;20120;-83
2023/04/03 12:22:03;;;;;;;30.25;12.88;;;15.30;63.60;;;;;;5030939;28;20073;-83
2023/04/03 12:24:33;;;;;;;26.52;10.45;;;15.20;64.30;;;;;;5043067;28;20052;-83
2023/04/03 12:27:20;;;;;;;20.80;9.57;;;15.20;64.20;;;;;;5026337;28;20068;-84
2023/04/03 12:30:04;;;;;;;14.45;9.43;;;15.20;64.20;;;;;;5045947;28;20037;-84
2023/04/03 12:32:36;;;;;;;16.38;7.85;;;15.10;63.80;;;;;;5046563;28;20024;-85
2023/04/03 12:35:17;;;;;;;22.15;9.52;;;15.00;63.40;;;;;;5045260;28;20044;-85
2023/04/03 12:38:14;;;;;;;20.08;9.13;;;14.90;63.90;;;;;;5042036;28;20025;-84
2023/04/03 12:40:42;;;;;;;27.15;9.90;;;14.90;64.20;;;;;;5044908;28;20034;-86
2023/04/03 12:43:33;;;;;;;14.52;8.80;;;14.80;64.30;;;;;;5048754;28;20029;-85
2023/04/03 12:46:12;;;;;;;16.38;8.75;;;14.80;64.40;;;;;;5032325;28;20029;-84
2023/04/03 12:48:47;;;;;;;13.43;7.25;;;14.70;64.50;;;;;;5036585;28;20128;-85
2023/04/03 12:51:41;;;;;;;21.65;8.07;;;14.70;64.90;;;;;;5038696;28;20025;-83
2023/04/03 12:54:16;;;;;;;20.52;9.05;;;14.60;65.20;;;;;;5039060;28;20037;-84